ADDS METAR Data INFO
IDs: Format: Raw Decoded Include TAF

Data at: 0254 UTC 21 Oct 2017

KCPS 210153Z 16010KT 10SM CLR 21/11 A3006 RMK AO2 PRESRR SLP177 T02060111
KCPS 210053Z 15006KT 10SM CLR 19/10 A3007 RMK AO2 SLP180 T01940100
KCPS 202353Z 17006KT 10SM CLR 22/09 A3006 RMK AO2 SLP177 T02170094 10261 20217 55008
KCPS 202253Z 14008KT 10SM CLR 22/09 A3005 RMK AO2 SLP176 T02220089
KCPS 202153Z 13008KT 10SM CLR 24/09 A3006 RMK AO2 SLP177 T02440094
KCPS 202053Z 15011KT 10SM CLR 25/08 A3008 RMK AO2 SLP184 T02500083 56023
KCPS 201953Z 16008KT 10SM CLR 26/09 A3010 RMK AO2 SLP189 T02560094
KCPS 201853Z 16012KT 10SM CLR 26/09 A3012 RMK AO2 SLP197 T02560089
KCPS 201753Z 15008KT 10SM CLR 24/09 A3015 RMK AO2 SLP207 T02440094 10244 20083 58028
KCPS 201653Z 19007KT 10SM CLR 23/09 A3019 RMK AO2 SLP220 T02280094
KCPS 201553Z 14006KT 10SM CLR 21/11 A3022 RMK AO2 SLP230 T02110111
KCPS 201453Z 16005KT 10SM CLR 18/12 A3023 RMK AO2 SLP236 T01830117 50006
KCPS 201353Z 15003KT 10SM CLR 14/11 A3023 RMK AO2 SLP236 T01440106
KCPS 201253Z 00000KT 4SM BR CLR 09/08 A3022 RMK AO2 SLP232 T00940083
KCPS 201153Z 00000KT 9SM CLR 10/08 A3021 RMK AO2 SLP230 T01000078 10144 20078 53014
KCPS 201053Z AUTO 00000KT 7SM CLR 09/07 A3019 RMK AO2 SLP222 T00890072
KCPS 201023Z AUTO 16004KT 3SM BR CLR 09/07 A3019 RMK AO2 T00890072
KCPS 201006Z AUTO 16003KT 1 3/4SM BR CLR 09/08 A3018 RMK AO2 VIS 3/4V4 T00940078
KCPS 200953Z AUTO 17003KT 7SM CLR 09/08 A3018 RMK AO2 SLP218 T00940083
KCPS 200853Z AUTO 00000KT 9SM CLR 10/08 A3017 RMK AO2 SLP216 T01000083 53004
KCPS 200753Z AUTO 15003KT 10SM CLR 11/08 A3017 RMK AO2 SLP213 T01060078
KCPS 200653Z AUTO 16003KT 10SM CLR 12/09 A3017 RMK AO2 SLP213 T01220089
KCPS 200553Z AUTO 16005KT 10SM CLR 14/09 A3016 RMK AO2 SLP210 60000 T01440094 10211 20128 402830078 50001
KCPS 200453Z AUTO 16005KT 10SM CLR 15/09 A3016 RMK AO2 SLP212 T01500094
KCPS 200353Z AUTO 00000KT 10SM CLR 16/09 A3016 RMK AO2 SLP212 T01610094
KCPS 200253Z 00000KT 10SM CLR 17/09 A3016 RMK AO2 SLP210 60000 T01720089 52006
KCPS 200153Z 15006KT 10SM CLR 18/09 A3015 RMK AO2 SLP207 T01830094
KCPS 200053Z 15007KT 10SM CLR 20/09 A3015 RMK AO2 RAE2354 SLP209 P0000 T02000094
KCPS 192353Z 15005KT 10SM -RA CLR 21/09 A3014 RMK AO2 RAB06 SLP205 P0000 60000 T02110094 10283 20211 53002
KCPS 192253Z 15003KT 10SM CLR 26/09 A3013 RMK AO2 SLP201 T02560089
KCPS 192153Z VRB04KT 10SM CLR 28/08 A3013 RMK AO2 SLP200 T02780078
KCPS 192053Z 24006KT 10SM CLR 28/08 A3013 RMK AO2 SLP202 T02780078 56015
KCPS 191953Z 25005KT 10SM CLR 28/08 A3014 RMK AO2 SLP204 T02780078
KCPS 191853Z 00000KT 9SM CLR 27/08 A3016 RMK AO2 SLP210 T02670083
KCPS 191753Z VRB05KT 10SM CLR 26/08 A3018 RMK AO2 SLP218 T02610083 10267 20083 58007
KCPS 191653Z VRB04KT 10SM CLR 23/11 A3020 RMK AO2 SLP224 T02330106
KCPS 191553Z 21004KT 10SM CLR 21/11 A3020 RMK AO2 SLP225 T02110106